Time;durP1;ratioP1;P1;durP2;ratioP2;P2;SDS_P1;SDS_P2;PMS_P1;PMS_P2;Temp;Humidity;BMP_temperature;BMP_pressure;BME280_temperature;BME280_humidity;BME280_pressure;Samples;Min_cycle;Max_cycle;Signal;HPM_P1;HPM_P2
2022/04/22 00:00:01;;;;;;;;;6.25;6.00;;;;;11.24;60.17;99195.66;5074613;28;8905;-63
2022/04/22 00:02:28;;;;;;;;;3.33;3.00;;;;;11.27;60.48;99193.56;5073720;28;8858;-63
2022/04/22 00:04:56;;;;;;;;;6.00;6.00;;;;;11.31;60.69;99194.91;5075787;28;8870;-63
2022/04/22 00:07:24;;;;;;;;;9.50;9.25;;;;;11.35;60.64;99180.34;5075018;28;8836;-63
2022/04/22 00:09:51;;;;;;;;;11.00;9.25;;;;;11.37;60.60;99181.03;5075637;28;8868;-63
2022/04/22 00:12:19;;;;;;;;;9.00;7.00;;;;;11.39;60.55;99183.56;5075301;28;8848;-63
2022/04/22 00:14:47;;;;;;;;;9.75;9.00;;;;;11.36;60.82;99187.34;5075167;28;8962;-63
2022/04/22 00:17:15;;;;;;;;;9.50;8.00;;;;;11.33;60.72;99178.78;5073950;28;8820;-63
2022/04/22 00:19:42;;;;;;;;;9.00;9.00;;;;;11.28;61.76;99186.38;5075225;28;8820;-63
2022/04/22 00:22:10;;;;;;;;;6.25;6.25;;;;;11.21;61.23;99178.13;5075858;28;8951;-62
2022/04/22 00:24:38;;;;;;;;;8.50;5.75;;;;;11.18;61.30;99173.09;5074525;28;8855;-62
2022/04/22 00:27:06;;;;;;;;;11.50;10.50;;;;;11.15;62.11;99178.69;5074915;28;9530;-63
2022/04/22 00:29:33;;;;;;;;;12.00;12.00;;;;;11.12;61.68;99170.16;5075684;28;8836;-68
2022/04/22 00:32:01;;;;;;;;;10.50;10.00;;;;;11.11;62.02;99163.16;5075391;28;8820;-63
2022/04/22 00:34:29;;;;;;;;;10.50;9.00;;;;;11.12;61.88;99168.34;5075182;28;8943;-63
2022/04/22 00:36:57;;;;;;;;;7.75;6.50;;;;;11.11;62.30;99163.16;5075318;28;8832;-63
2022/04/22 00:39:25;;;;;;;;;9.25;8.00;;;;;11.09;62.36;99165.94;5074294;28;8872;-63
2022/04/22 00:41:52;;;;;;;;;12.00;10.00;;;;;11.07;62.42;99154.59;5075534;28;8914;-63
2022/04/22 00:44:20;;;;;;;;;9.50;9.00;;;;;11.04;62.38;99156.72;5074730;28;8820;-64
2022/04/22 00:46:48;;;;;;;;;7.50;7.00;;;;;11.03;62.69;99161.22;5075098;28;8846;-62
2022/04/22 00:49:16;;;;;;;;;15.75;13.50;;;;;11.00;62.84;99156.16;5075166;28;8837;-62
2022/04/22 00:51:44;;;;;;;;;11.50;9.25;;;;;10.98;62.93;99157.28;5073808;28;8963;-63
2022/04/22 00:54:11;;;;;;;;;10.50;10.00;;;;;10.99;63.04;99153.66;5073750;28;8812;-63
2022/04/22 00:56:40;;;;;;;;;10.00;8.00;;;;;11.01;62.75;99157.00;5075099;28;8850;-63
2022/04/22 00:59:08;;;;;;;;;9.25;8.25;;;;;11.02;62.95;99153.38;5075516;28;8856;-62
2022/04/22 01:01:35;;;;;;;;;10.75;9.75;;;;;11.03;63.42;99155.91;5074446;28;8836;-63
2022/04/22 01:09:48;;;;;;;;;12.00;10.00;;;;;11.05;63.88;99129.94;5074909;28;8894;-63
2022/04/22 01:12:16;;;;;;;;;10.80;9.00;;;;;11.03;63.73;99131.91;5074226;28;8825;-63
2022/04/22 01:14:43;;;;;;;;;11.00;11.00;;;;;11.00;63.72;99118.88;5073449;28;8828;-62
2022/04/22 01:17:12;;;;;;;;;16.00;13.50;;;;;10.96;63.96;99119.31;5073055;28;8831;-68
2022/04/22 01:19:39;;;;;;;;;9.75;9.00;;;;;10.93;63.91;99115.09;5072750;28;8929;-63
2022/04/22 01:22:08;;;;;;;;;12.50;9.75;;;;;10.90;64.10;99122.53;5074543;28;8824;-62
2022/04/22 01:24:36;;;;;;;;;12.25;10.00;;;;;10.87;64.40;99122.84;5074314;28;8837;-63
2022/04/22 01:27:06;;;;;;;;;15.25;13.00;;;;;10.82;64.25;99119.75;5059368;28;8966;-63
2022/04/22 01:29:34;;;;;;;;;17.50;15.25;;;;;10.79;64.49;99128.03;5074116;28;8836;-62
2022/04/22 01:32:01;;;;;;;;;13.00;12.00;;;;;10.75;64.45;99123.97;5074384;28;8978;-64
2022/04/22 01:34:29;;;;;;;;;14.50;12.25;;;;;10.71;64.43;99122.59;5074412;28;8840;-63
2022/04/22 01:36:57;;;;;;;;;12.50;11.50;;;;;10.67;64.77;99116.72;5077964;28;9490;-63
2022/04/22 01:39:25;;;;;;;;;12.00;11.00;;;;;10.64;64.70;99116.16;5078208;28;8864;-63
2022/04/22 01:41:53;;;;;;;;;20.60;14.60;;;;;10.60;64.48;99115.59;5078475;28;8846;-63
2022/04/22 01:44:20;;;;;;;;;12.25;11.00;;;;;10.55;64.87;99114.34;5078521;28;8889;-62
2022/04/22 01:46:48;;;;;;;;;11.40;8.60;;;;;10.52;65.18;99111.97;5078371;28;8828;-63
2022/04/22 01:49:16;;;;;;;;;15.40;13.00;;;;;10.48;65.28;99108.75;5077936;28;8812;-63
2022/04/22 01:51:44;;;;;;;;;11.40;10.00;;;;;10.46;65.24;99113.38;5078166;28;8826;-63
2022/04/22 01:54:11;;;;;;;;;13.40;12.00;;;;;10.43;65.13;99105.69;5078033;28;8975;-63
2022/04/22 01:56:39;;;;;;;;;17.50;11.00;;;;;10.39;65.63;99101.63;5076820;28;8825;-63
2022/04/22 01:59:07;;;;;;;;;13.40;12.00;;;;;10.37;65.57;99114.22;5077483;28;8925;-63
2022/04/22 02:01:35;;;;;;;;;15.40;13.40;;;;;10.35;66.03;99110.03;5077331;28;8829;-63
2022/04/22 02:04:03;;;;;;;;;16.40;14.20;;;;;10.32;65.81;99108.47;5077793;28;8820;-62
2022/04/22 02:06:31;;;;;;;;;18.60;13.80;;;;;10.30;65.77;99107.78;5078033;28;8832;-62
2022/04/22 02:08:58;;;;;;;;;6.20;5.60;;;;;10.27;66.27;99108.09;5077958;28;8868;-63
2022/04/22 02:11:26;;;;;;;;;15.20;15.00;;;;;10.25;66.07;99104.69;5078011;28;8828;-62
2022/04/22 02:13:54;;;;;;;;;11.20;10.00;;;;;10.22;66.15;99105.00;5077935;28;8824;-63
2022/04/22 02:16:22;;;;;;;;;9.00;6.60;;;;;10.18;65.81;99092.13;5077484;28;8859;-63
2022/04/22 02:18:51;;;;;;;;;9.00;7.80;;;;;10.15;66.33;99098.56;5077567;28;8855;-63
2022/04/22 02:21:21;;;;;;;;;12.00;10.00;;;;;10.14;66.35;99093.34;5077744;28;9581;-63
2022/04/22 02:23:49;;;;;;;;;13.00;12.20;;;;;10.11;66.06;99105.13;5078202;28;8844;-63
2022/04/22 02:26:17;;;;;;;;;7.00;6.40;;;;;10.09;66.46;99107.06;5077364;28;8825;-63
2022/04/22 02:28:44;;;;;;;;;12.80;10.80;;;;;10.07;66.76;99102.88;5075698;28;9748;-63
2022/04/22 02:31:12;;;;;;;;;13.80;12.80;;;;;10.04;66.65;99112.00;5074886;28;8828;-62
2022/04/22 02:33:40;;;;;;;;;13.40;12.20;;;;;10.02;66.56;99099.78;5075310;28;8812;-62
2022/04/22 02:36:08;;;;;;;;;14.20;12.20;;;;;9.99;66.92;99100.91;5075753;28;8834;-63
2022/04/22 02:38:35;;;;;;;;;13.80;12.20;;;;;9.97;66.62;99096.69;5075429;28;8838;-62
2022/04/22 02:46:34;;;;;;;;;15.00;12.80;;;;;9.85;67.07;99098.63;5059308;28;8832;-63
2022/04/22 02:49:01;;;;;;;;;11.60;9.00;;;;;9.83;66.67;99097.94;5075183;28;8878;-63
2022/04/22 02:51:29;;;;;;;;;12.80;11.60;;;;;9.80;67.33;99092.88;5075378;28;8823;-63
2022/04/22 02:53:57;;;;;;;;;12.20;12.00;;;;;9.78;66.63;99096.69;5075321;28;8836;-63
2022/04/22 02:56:25;;;;;;;;;14.20;12.60;;;;;9.75;66.37;99100.44;5075173;28;8858;-62
2022/04/22 02:58:52;;;;;;;;;11.60;11.40;;;;;9.75;66.82;99100.44;5075177;28;8894;-63
2022/04/22 03:01:20;;;;;;;;;10.00;9.40;;;;;9.75;66.73;99091.63;5075262;28;8826;-62
2022/04/22 03:03:48;;;;;;;;;17.60;13.80;;;;;9.74;66.90;99095.25;5076469;28;8828;-63
2022/04/22 03:06:16;;;;;;;;;13.40;11.60;;;;;9.72;66.98;99094.56;5076853;28;8832;-63
2022/04/22 03:08:43;;;;;;;;;11.20;9.80;;;;;9.71;66.60;99095.56;5076978;28;8942;-62
2022/04/22 03:11:11;;;;;;;;;15.60;13.00;;;;;9.68;66.99;99083.38;5076361;28;8817;-62
2022/04/22 03:13:40;;;;;;;;;12.40;11.60;;;;;9.65;66.89;99080.97;5076897;28;8866;-62
2022/04/22 03:16:09;;;;;;;;;15.40;13.80;;;;;9.65;67.09;99091.59;5076060;28;8850;-62
2022/04/22 03:18:37;;;;;;;;;15.60;15.40;;;;;9.63;67.51;99084.75;5076799;28;8832;-62
2022/04/22 03:21:04;;;;;;;;;10.80;10.00;;;;;9.58;66.96;99093.13;5076322;28;8850;-63
2022/04/22 03:23:37;;;;;;;;;16.00;15.40;;;;;9.54;67.02;99094.38;5076946;28;8967;-62
2022/04/22 03:26:05;;;;;;;;;14.20;12.40;;;;;9.53;67.27;99095.38;5076507;28;8859;-63
2022/04/22 03:28:32;;;;;;;;;13.60;12.20;;;;;9.53;67.29;99089.19;5075793;28;8828;-62
2022/04/22 03:31:00;;;;;;;;;12.40;11.60;;;;;9.54;67.21;99091.72;5076361;28;8832;-63
2022/04/22 03:33:28;;;;;;;;;13.80;13.40;;;;;9.58;67.10;99087.81;5076843;28;8828;-62
2022/04/22 03:35:56;;;;;;;;;12.40;11.40;;;;;9.64;66.90;99081.94;5076141;28;8836;-62
2022/04/22 03:38:23;;;;;;;;;7.60;6.60;;;;;9.72;66.79;99086.59;5076048;28;8975;-63
2022/04/22 03:40:51;;;;;;;;;15.00;11.20;;;;;9.79;66.39;99077.91;5076677;28;8860;-63
2022/04/22 03:43:19;;;;;;;;;13.00;11.60;;;;;9.88;66.53;99079.72;5076243;28;8816;-63
2022/04/22 03:45:46;;;;;;;;;19.80;17.20;;;;;9.95;66.24;99075.53;5075766;28;8828;-63
2022/04/22 03:48:16;;;;;;;;;19.00;13.20;;;;;10.00;66.30;99075.97;5076008;28;8970;-63
2022/04/22 03:50:43;;;;;;;;;14.20;12.80;;;;;10.05;66.23;99079.09;5076237;28;8816;-63
2022/04/22 03:53:11;;;;;;;;;16.40;14.00;;;;;10.10;66.23;99086.66;5075939;28;8832;-63
2022/04/22 03:55:39;;;;;;;;;14.00;12.00;;;;;10.14;66.27;99083.56;5076181;28;8958;-63
2022/04/22 03:58:12;;;;;;;;;12.80;11.20;;;;;10.19;66.33;99076.03;5075228;28;8848;-63
2022/04/22 04:00:41;;;;;;;;;16.00;16.00;;;;;10.22;65.75;99078.38;5075390;28;8837;-62
2022/04/22 04:03:09;;;;;;;;;13.20;9.40;;;;;10.24;65.43;99071.09;5075086;28;8909;-63
2022/04/22 04:05:36;;;;;;;;;12.20;9.60;;;;;10.24;65.79;99071.09;5074970;28;8840;-63
2022/04/22 04:08:04;;;;;;;;;11.25;11.25;;;;;10.26;65.56;99076.28;5073892;28;8866;-63
2022/04/22 04:16:03;;;;;;;;;15.80;14.60;;;;;10.29;65.98;99060.88;5094901;28;8848;-62
2022/04/22 04:18:30;;;;;;;;;18.00;13.80;;;;;10.34;65.56;99069.28;5094489;28;8960;-62
2022/04/22 04:23:44;;;;;;;;;6.00;6.00;;;;;10.37;66.48;99061.00;5094328;28;8954;-63
2022/04/22 04:26:11;;;;;;;;;12.60;11.20;;;;;10.38;65.59;99065.34;5094317;28;8830;-63
2022/04/22 04:28:39;;;;;;;;;13.60;10.80;;;;;10.42;65.87;99064.09;5094548;28;8826;-63
2022/04/22 04:31:07;;;;;;;;;18.00;13.80;;;;;10.46;65.87;99065.47;5093683;28;8818;-63
2022/04/22 04:33:36;;;;;;;;;16.20;14.80;;;;;10.51;65.54;99060.56;5093912;28;8830;-63
2022/04/22 04:36:04;;;;;;;;;6.25;5.00;;;;;10.54;65.60;99062.94;5094490;28;8957;-63
2022/04/22 04:38:31;;;;;;;;;16.25;15.25;;;;;10.57;65.68;99045.84;5094559;28;8850;-63
2022/04/22 04:40:59;;;;;;;;;15.80;15.00;;;;;10.60;65.48;99062.38;5094372;28;8823;-63
2022/04/22 04:43:27;;;;;;;;;17.60;15.00;;;;;10.61;65.63;99050.72;5094707;28;8819;-63
2022/04/22 04:45:55;;;;;;;;;16.80;14.60;;;;;10.64;65.90;99049.59;5094400;28;9634;-62
2022/04/22 04:48:24;;;;;;;;;14.25;12.50;;;;;10.67;65.62;99058.13;5094829;28;9487;-63
2022/04/22 04:50:55;;;;;;;;;18.00;16.80;;;;;10.70;65.21;99054.34;5094842;28;8960;-63
2022/04/22 04:53:23;;;;;;;;;13.80;13.00;;;;;10.71;65.70;99043.53;5094773;28;8834;-63
2022/04/22 04:55:52;;;;;;;;;13.40;9.80;;;;;10.73;65.43;99044.25;5095133;28;8848;-63
2022/04/22 04:58:20;;;;;;;;;12.60;12.60;;;;;10.76;65.43;99045.78;5095684;28;8838;-63
2022/04/22 05:00:48;;;;;;;;;22.80;17.60;;;;;10.78;65.31;99039.31;5093929;28;8838;-64
2022/04/22 05:03:16;;;;;;;;;19.20;16.80;;;;;10.82;65.42;99040.72;5094801;28;8838;-62
2022/04/22 05:05:43;;;;;;;;;16.75;13.75;;;;;10.87;65.36;99045.59;5095304;28;9007;-62
2022/04/22 05:08:11;;;;;;;;;21.00;18.00;;;;;10.88;65.52;99044.59;5094995;28;8970;-62
2022/04/22 05:10:40;;;;;;;;;15.20;13.40;;;;;10.90;65.26;99037.31;5082538;28;8868;-62
2022/04/22 05:13:08;;;;;;;;;19.40;18.60;;;;;10.92;65.81;99038.84;5078618;28;8848;-62
2022/04/22 05:15:36;;;;;;;;;17.80;15.60;;;;;10.94;65.59;99039.53;5078420;28;8974;-63
2022/04/22 05:18:04;;;;;;;;;18.20;15.80;;;;;10.96;65.79;99042.91;5076939;28;9800;-63
2022/04/22 05:20:33;;;;;;;;;20.80;19.20;;;;;10.97;65.59;99036.59;5076795;28;8851;-63
2022/04/22 05:23:01;;;;;;;;;14.50;12.75;;;;;11.00;65.33;99035.47;5077041;28;8840;-63
2022/04/22 05:25:29;;;;;;;;;19.75;15.25;;;;;11.00;65.55;99028.28;5077438;28;8848;-62
2022/04/22 05:27:57;;;;;;;;;15.50;14.50;;;;;11.01;65.85;99040.63;5077489;28;8937;-63
2022/04/22 05:33:10;;;;;;;;;15.50;12.75;;;;;11.06;65.60;99037.53;5078080;28;8879;-63
2022/04/22 05:35:38;;;;;;;;;15.00;14.60;;;;;11.08;65.64;99033.72;5077998;28;8845;-63
2022/04/22 05:38:06;;;;;;;;;13.00;12.20;;;;;11.10;65.88;99033.59;5078439;28;8903;-62
2022/04/22 05:40:33;;;;;;;;;19.00;16.50;;;;;11.13;65.60;99039.47;5077594;28;8852;-63
2022/04/22 05:43:01;;;;;;;;;14.75;13.00;;;;;11.16;65.67;99047.13;5077713;28;8867;-62
2022/04/22 05:45:29;;;;;;;;;17.25;16.50;;;;;11.19;65.85;99036.22;5077253;28;8828;-62
2022/04/22 05:47:57;;;;;;;;;18.40;15.40;;;;;11.21;65.30;99044.88;5077114;28;8946;-63
2022/04/22 05:50:25;;;;;;;;;15.75;14.50;;;;;11.24;65.60;99038.44;5077307;28;9770;-63
2022/04/22 05:52:53;;;;;;;;;22.25;19.50;;;;;11.25;65.78;99038.28;5077417;28;8951;-62
2022/04/22 05:55:20;;;;;;;;;9.75;9.75;;;;;11.25;66.30;99038.28;5077940;28;8854;-62
2022/04/22 05:57:52;;;;;;;;;10.50;10.00;;;;;11.27;66.18;99038.97;5077142;28;8981;-62
2022/04/22 06:00:20;;;;;;;;;18.75;15.75;;;;;11.31;66.17;99036.84;5075539;28;8862;-62
2022/04/22 06:02:47;;;;;;;;;13.80;12.80;;;;;11.32;66.20;99030.53;5074755;28;8832;-63
2022/04/22 06:05:15;;;;;;;;;16.00;13.50;;;;;11.36;66.30;99027.41;5075752;28;8844;-63
2022/04/22 06:07:43;;;;;;;;;12.25;11.50;;;;;11.41;65.91;99022.47;5074778;28;8871;-63
2022/04/22 06:12:55;;;;;;;;;19.75;14.00;;;;;11.54;65.60;99032.78;5056238;28;8846;-63
2022/04/22 06:15:23;;;;;;;;;14.25;12.50;;;;;11.59;65.86;99025.22;5057487;28;8838;-63
2022/04/22 06:17:51;;;;;;;;;15.75;14.50;;;;;11.64;65.75;99026.44;5076629;28;8848;-64
2022/04/22 06:20:19;;;;;;;;;22.00;16.00;;;;;11.68;65.71;99019.78;5076939;28;8848;-62
2022/04/22 06:22:47;;;;;;;;;16.00;13.75;;;;;11.74;65.41;99015.69;5074762;28;8929;-63
2022/04/22 06:25:14;;;;;;;;;10.25;8.75;;;;;11.80;65.39;99018.59;5076786;28;8847;-62
2022/04/22 06:27:42;;;;;;;;;20.00;16.00;;;;;11.97;65.37;99009.72;5075885;28;8821;-63
2022/04/22 06:30:10;;;;;;;;;12.00;10.50;;;;;12.20;64.46;99013.59;5077705;28;8836;-62
2022/04/22 06:32:38;;;;;;;;;16.50;14.75;;;;;12.40;64.12;99004.41;5075893;28;8817;-63
2022/04/22 06:35:06;;;;;;;;;15.00;12.00;;;;;12.53;64.53;98996.81;5076839;28;8828;-64
2022/04/22 06:37:34;;;;;;;;;12.00;10.75;;;;;12.55;64.14;98995.66;5076200;28;8828;-64
2022/04/22 06:45:50;;;;;;;;;14.75;13.00;;;;;12.65;64.15;98982.19;5075506;28;8974;-64
2022/04/22 06:48:18;;;;;;;;;12.25;9.25;;;;;12.71;63.91;98989.56;5074570;28;8831;-63
2022/04/22 06:51:06;;;;;;;;;12.75;11.00;;;;;12.79;63.74;98994.97;5074035;28;8866;-64
2022/04/22 06:53:34;;;;;;;;;13.75;13.00;;;;;12.83;64.17;98996.34;5074152;28;8882;-63
2022/04/22 06:56:02;;;;;;;;;13.50;12.25;;;;;12.86;64.20;98998.66;5075702;28;8929;-64
2022/04/22 06:58:30;;;;;;;;;17.75;15.75;;;;;12.90;63.82;99000.03;5074730;28;8832;-64
2022/04/22 07:00:58;;;;;;;;;15.75;14.50;;;;;12.97;63.98;98998.41;5075705;28;9019;-64
2022/04/22 07:03:26;;;;;;;;;10.00;9.00;;;;;12.98;63.70;98994.78;5075923;28;8844;-63
2022/04/22 07:05:54;;;;;;;;;11.75;10.50;;;;;13.06;63.55;98994.81;5059671;28;8968;-64
2022/04/22 07:08:22;;;;;;;;;13.75;11.00;;;;;13.15;63.48;98994.66;5075515;28;8832;-63
2022/04/22 07:10:49;;;;;;;;;15.50;12.75;;;;;13.32;63.59;98990.19;5090983;28;8972;-63
2022/04/22 07:13:17;;;;;;;;;10.75;8.75;;;;;13.54;62.63;98985.09;5095621;28;8822;-64
2022/04/22 07:15:45;;;;;;;;;14.75;14.75;;;;;13.72;62.10;98990.28;5096144;28;8858;-63
2022/04/22 07:18:13;;;;;;;;;14.25;13.50;;;;;13.83;62.06;98989.97;5094611;28;8853;-63
2022/04/22 07:20:41;;;;;;;;;12.75;11.50;;;;;13.94;61.71;98989.66;5095552;28;8838;-63
2022/04/22 07:23:08;;;;;;;;;14.50;12.00;;;;;14.08;61.62;98989.84;5095952;28;8826;-63
2022/04/22 07:25:38;;;;;;;;;9.50;9.00;;;;;14.14;61.70;98983.81;5095801;28;9632;-63
2022/04/22 07:28:05;;;;;;;;;17.25;15.75;;;;;14.11;61.47;98980.63;5095165;28;8852;-63
2022/04/22 07:30:33;;;;;;;;;15.25;13.00;;;;;14.11;61.43;98978.78;5094103;28;8841;-63
2022/04/22 07:33:01;;;;;;;;;14.50;13.00;;;;;14.14;61.42;98972.25;5093870;28;8845;-64
2022/04/22 07:35:29;;;;;;;;;16.00;15.50;;;;;14.27;61.36;98972.63;5094500;28;8988;-63
2022/04/22 07:37:56;;;;;;;;;17.50;16.00;;;;;14.40;61.28;98980.94;5092796;28;8869;-64
2022/04/22 07:40:24;;;;;;;;;12.50;11.00;;;;;14.46;61.01;98974.94;5093749;28;8868;-64
2022/04/22 07:48:34;;;;;;;;;9.75;9.75;;;;;14.60;60.57;98964.38;5094714;28;8838;-64
2022/04/22 07:51:02;;;;;;;;;7.75;6.75;;;;;14.75;60.69;98972.53;5094908;28;9728;-63
2022/04/22 07:53:30;;;;;;;;;15.50;13.50;;;;;14.76;59.67;98972.34;5095932;28;8849;-64
2022/04/22 07:55:57;;;;;;;;;15.25;15.00;;;;;14.83;59.95;98969.81;5095635;28;9519;-63
2022/04/22 07:58:25;;;;;;;;;12.75;11.50;;;;;14.94;59.80;98966.78;5094839;28;8849;-64
2022/04/22 08:00:53;;;;;;;;;13.00;12.50;;;;;14.99;59.11;98969.75;5093966;28;8838;-63
2022/04/22 08:03:21;;;;;;;;;12.00;11.00;;;;;15.01;59.19;98970.44;5091404;28;8842;-63
2022/04/22 08:05:49;;;;;;;;;15.00;15.00;;;;;15.05;59.23;98969.06;5092021;28;8842;-64
2022/04/22 08:08:17;;;;;;;;;17.50;15.50;;;;;15.10;58.95;98972.06;5092668;28;8858;-63
2022/04/22 08:10:45;;;;;;;;;13.25;10.50;;;;;15.08;59.29;98974.06;5077613;28;8937;-63
2022/04/22 08:13:13;;;;;;;;;15.00;14.00;;;;;15.17;59.16;98971.19;5072337;28;8828;-64
2022/04/22 08:15:40;;;;;;;;;18.75;18.00;;;;;15.26;58.73;98966.63;5073452;28;8832;-63
2022/04/22 08:18:10;;;;;;;;;15.50;14.00;;;;;15.36;58.76;98978.00;5073835;28;8950;-64
2022/04/22 08:20:37;;;;;;;;;19.00;16.00;;;;;15.32;58.35;98965.97;5073610;28;9890;-63
2022/04/22 08:23:05;;;;;;;;;16.00;15.25;;;;;15.24;58.76;98971.34;5072899;28;8858;-64
2022/04/22 08:25:33;;;;;;;;;15.25;13.00;;;;;15.21;58.49;98969.84;5074592;28;8832;-64
2022/04/22 08:28:02;;;;;;;;;16.25;15.00;;;;;15.16;59.03;98971.38;5073786;28;8966;-64
2022/04/22 08:30:30;;;;;;;;;16.75;13.50;;;;;15.22;58.46;98970.66;5074025;28;8840;-64
2022/04/22 08:33:01;;;;;;;;;15.75;15.50;;;;;15.29;58.19;98971.63;5073320;28;8825;-63
2022/04/22 08:35:28;;;;;;;;;21.50;19.50;;;;;15.25;57.82;98967.63;5073669;28;8858;-63
2022/04/22 08:37:59;;;;;;;;;17.25;16.75;;;;;15.20;58.32;98972.69;5073925;28;8848;-64
2022/04/22 08:40:26;;;;;;;;;16.50;14.00;;;;;15.20;57.65;98957.44;5074005;28;8986;-63
2022/04/22 08:42:54;;;;;;;;;14.50;13.00;;;;;15.18;57.73;98961.31;5073840;28;8858;-63
2022/04/22 08:45:22;;;;;;;;;21.00;18.75;;;;;15.16;57.76;98960.66;5072696;28;8851;-63
2022/04/22 08:50:35;;;;;;;;;18.75;15.75;;;;;15.14;57.25;98960.81;5073386;28;8856;-63
2022/04/22 08:53:03;;;;;;;;;18.00;17.00;;;;;15.15;57.07;98967.84;5053846;28;8982;-64
2022/04/22 08:55:30;;;;;;;;;16.50;15.75;;;;;15.06;57.46;98962.69;5053025;28;8846;-64
2022/04/22 08:57:58;;;;;;;;;20.00;18.00;;;;;15.09;57.70;98959.66;5072057;28;8824;-63
2022/04/22 09:00:27;;;;;;;;;20.00;19.00;;;;;15.20;56.86;98954.75;5067955;28;8835;-64
2022/04/22 09:02:55;;;;;;;;;20.75;18.00;;;;;15.31;56.99;98948.16;5071397;28;8832;-64
2022/04/22 09:05:22;;;;;;;;;11.00;11.00;;;;;15.48;56.55;98957.81;5073237;28;9518;-64
2022/04/22 09:07:50;;;;;;;;;18.25;16.25;;;;;15.45;56.33;98950.94;5073961;28;8836;-64
2022/04/22 09:10:18;;;;;;;;;16.00;13.00;;;;;15.44;56.26;98946.59;5073421;28;8868;-63
2022/04/22 09:12:46;;;;;;;;;16.75;14.75;;;;;15.44;56.26;98948.44;5074152;28;8890;-64
2022/04/22 09:15:14;;;;;;;;;20.00;17.50;;;;;15.44;56.48;98932.34;5074123;28;8840;-64
2022/04/22 09:17:43;;;;;;;;;16.00;16.00;;;;;15.40;56.34;98956.00;5073710;28;8812;-64
2022/04/22 09:20:10;;;;;;;;;14.50;12.25;;;;;15.39;56.20;98940.91;5073663;28;8836;-64
2022/04/22 09:22:38;;;;;;;;;15.25;14.00;;;;;15.40;55.98;98945.28;5073564;28;8849;-64
2022/04/22 09:25:06;;;;;;;;;16.25;15.75;;;;;15.38;56.21;98936.56;5073904;28;8842;-64
2022/04/22 09:27:34;;;;;;;;;13.00;13.00;;;;;15.34;56.01;98948.69;5074030;28;8862;-63
2022/04/22 09:30:02;;;;;;;;;16.50;14.00;;;;;15.23;56.18;98945.50;5073741;28;8848;-63
2022/04/22 09:32:29;;;;;;;;;14.00;13.00;;;;;15.12;56.40;98945.91;5073914;28;8832;-64
2022/04/22 09:34:57;;;;;;;;;16.25;14.50;;;;;14.98;56.90;98952.00;5074211;28;8860;-64
2022/04/22 09:42:55;;;;;;;;;13.75;12.50;;;;;14.71;57.23;98939.88;5064658;28;8862;-64
2022/04/22 09:45:23;;;;;;;;;10.00;9.25;;;;;14.72;56.89;98935.34;5072392;28;8828;-63
2022/04/22 09:47:51;;;;;;;;;15.00;14.50;;;;;14.69;56.89;98936.53;5068163;28;8851;-63
2022/04/22 09:50:21;;;;;;;;;14.25;14.00;;;;;14.67;56.74;98926.97;5072237;28;8820;-64
2022/04/22 09:52:49;;;;;;;;;10.00;9.00;;;;;14.67;57.42;98938.56;5072414;28;8824;-63
2022/04/22 09:55:18;;;;;;;;;16.00;13.50;;;;;14.76;56.91;98933.97;5072101;28;8843;-64
2022/04/22 09:57:45;;;;;;;;;16.00;13.00;;;;;14.91;56.27;98934.94;5076072;28;8824;-64
2022/04/22 10:00:14;;;;;;;;;12.00;10.50;;;;;15.03;56.50;98929.00;5076533;28;8853;-64
2022/04/22 10:02:41;;;;;;;;;14.00;12.25;;;;;15.20;55.49;98935.13;5076018;28;8836;-64
2022/04/22 10:05:09;;;;;;;;;11.00;11.00;;;;;15.36;55.56;98918.97;5075972;28;8836;-64
2022/04/22 10:07:37;;;;;;;;;11.50;10.50;;;;;15.48;54.90;98914.88;5075637;28;8835;-64
2022/04/22 10:10:05;;;;;;;;;12.25;11.75;;;;;15.55;54.95;98913.97;5086123;28;8868;-64
2022/04/22 10:12:32;;;;;;;;;11.00;10.00;;;;;15.65;55.11;98913.75;5095895;28;8826;-64
2022/04/22 10:15:01;;;;;;;;;15.25;13.50;;;;;15.59;54.42;98909.94;5095772;28;8856;-64
2022/04/22 10:17:29;;;;;;;;;14.00;12.50;;;;;15.48;55.26;98907.66;5094327;28;8830;-63
2022/04/22 10:19:56;;;;;;;;;10.00;10.00;;;;;15.41;55.22;98911.25;5094333;28;8838;-63
2022/04/22 10:22:25;;;;;;;;;12.50;11.50;;;;;15.41;55.23;98903.19;5094539;28;8825;-63
2022/04/22 10:24:54;;;;;;;;;9.00;8.25;;;;;15.38;54.72;98916.94;5094895;28;8919;-63
2022/04/22 10:27:21;;;;;;;;;16.00;13.50;;;;;15.26;55.54;98908.44;5095142;28;8841;-63
2022/04/22 10:29:49;;;;;;;;;12.25;10.50;;;;;15.18;56.20;98904.97;5095396;28;8852;-64
2022/04/22 10:32:19;;;;;;;;;14.00;13.50;;;;;15.14;55.94;98914.38;5094412;28;8857;-64
2022/04/22 10:34:47;;;;;;;;;13.25;13.25;;;;;15.15;55.69;98902.63;5094723;28;8846;-65
2022/04/22 10:37:15;;;;;;;;;15.25;14.00;;;;;15.19;55.91;98910.19;5094661;28;8818;-66
2022/04/22 10:39:42;;;;;;;;;12.50;11.00;;;;;15.24;55.54;98912.31;5094387;28;8850;-64
2022/04/22 10:42:10;;;;;;;;;13.50;13.50;;;;;15.36;55.20;98908.25;5092598;28;8836;-65
2022/04/22 10:47:23;;;;;;;;;17.00;14.50;;;;;15.39;55.23;98897.19;5094018;28;8853;-64
2022/04/22 10:49:51;;;;;;;;;12.75;11.50;;;;;15.25;55.79;98911.31;5093779;28;8844;-63
2022/04/22 10:52:19;;;;;;;;;17.50;14.50;;;;;15.18;56.00;98902.28;5093630;28;8919;-65
2022/04/22 10:54:47;;;;;;;;;7.50;6.75;;;;;15.19;56.12;98901.28;5094716;28;8931;-64
2022/04/22 10:57:15;;;;;;;;;14.00;14.00;;;;;15.28;55.52;98902.91;5095419;28;8822;-65
2022/04/22 10:59:43;;;;;;;;;11.75;9.75;;;;;15.32;55.49;98901.56;5096823;28;8868;-65
2022/04/22 11:02:11;;;;;;;;;15.50;14.50;;;;;15.34;55.76;98900.41;5095298;28;8833;-64
2022/04/22 11:04:38;;;;;;;;;12.00;12.00;;;;;15.32;55.95;98893.53;5096561;28;8906;-65
2022/04/22 11:07:06;;;;;;;;;16.00;15.50;;;;;15.31;55.30;98892.69;5094323;28;8826;-65
2022/04/22 11:09:34;;;;;;;;;16.75;15.75;;;;;15.41;55.66;98889.78;5088366;28;8868;-64
2022/04/22 11:12:02;;;;;;;;;11.50;10.50;;;;;15.45;55.40;98883.88;5074476;28;8921;-64
2022/04/22 11:14:32;;;;;;;;;14.00;12.75;;;;;15.44;55.34;98889.41;5074961;28;8870;-64
2022/04/22 11:17:00;;;;;;;;;15.25;14.50;;;;;15.40;55.15;98896.16;5074087;28;8824;-64
2022/04/22 11:19:28;;;;;;;;;14.50;12.75;;;;;15.34;55.61;98894.19;5074185;28;8905;-64
2022/04/22 11:21:57;;;;;;;;;14.25;12.25;;;;;15.25;55.94;98897.91;5073758;28;8867;-64
2022/04/22 11:24:25;;;;;;;;;14.00;13.00;;;;;15.18;55.76;98894.25;5066344;28;8872;-64
2022/04/22 11:26:52;;;;;;;;;13.00;12.00;;;;;15.10;55.91;98886.25;5074107;28;8921;-65
2022/04/22 11:29:20;;;;;;;;;11.00;10.00;;;;;15.00;56.37;98886.47;5073979;28;8820;-64
2022/04/22 11:31:48;;;;;;;;;15.50;13.00;;;;;14.94;56.70;98886.34;5074457;28;9859;-64
2022/04/22 11:34:16;;;;;;;;;15.75;15.25;;;;;14.91;56.16;98887.53;5074263;28;8921;-64
2022/04/22 11:36:44;;;;;;;;;15.50;14.50;;;;;14.88;57.17;98887.03;5073582;28;8819;-63
2022/04/22 11:39:12;;;;;;;;;13.50;11.50;;;;;14.86;57.19;98884.53;5074736;28;8856;-64
2022/04/22 11:41:39;;;;;;;;;12.75;12.50;;;;;14.85;56.99;98882.00;5075354;28;8862;-65
2022/04/22 11:44:07;;;;;;;;;17.00;15.00;;;;;14.81;57.31;98891.41;5075400;28;8891;-64
2022/04/22 11:46:35;;;;;;;;;15.25;13.00;;;;;14.73;57.00;98886.09;5074235;28;9505;-64
2022/04/22 11:49:05;;;;;;;;;13.00;13.00;;;;;14.63;57.85;98888.97;5074545;28;8871;-65
2022/04/22 11:51:33;;;;;;;;;15.50;14.50;;;;;14.56;57.32;98892.53;5074542;28;8844;-65
2022/04/22 11:54:01;;;;;;;;;17.75;17.00;;;;;14.52;58.14;98886.69;5074821;28;8836;-65
2022/04/22 11:56:29;;;;;;;;;12.50;11.50;;;;;14.54;57.49;98883.81;5074137;28;8816;-64
2022/04/22 11:58:57;;;;;;;;;14.50;11.00;;;;;14.64;57.99;98884.47;5073775;28;8832;-64
2022/04/22 12:06:55;;;;;;;;;19.00;18.00;;;;;15.12;57.11;98884.22;5074759;28;8856;-64
2022/04/22 12:09:23;;;;;;;;;15.50;14.25;;;;;15.37;56.30;98875.03;5072996;28;8848;-64
2022/04/22 12:11:51;;;;;;;;;14.00;12.75;;;;;15.63;56.16;98878.22;5073905;28;8844;-65
2022/04/22 12:14:18;;;;;;;;;15.75;15.00;;;;;15.95;55.36;98867.19;5073987;28;8825;-64
2022/04/22 12:16:46;;;;;;;;;16.00;15.50;;;;;16.17;55.24;98867.97;5073693;28;8824;-65
2022/04/22 12:19:14;;;;;;;;;11.00;10.00;;;;;16.30;54.75;98857.41;5072671;28;9745;-64
2022/04/22 12:21:42;;;;;;;;;15.50;13.00;;;;;16.33;55.16;98862.41;5073910;28;9498;-64
2022/04/22 12:24:10;;;;;;;;;18.50;18.00;;;;;16.40;55.38;98865.25;5073248;28;9587;-65